sensor_id;sensor_type;location;lat;lon;timestamp;pressure;altitude;pressure_sealevel;temperature;humidity
65754;BME280;69207;47.502;18.940;2023-08-31T00:00:40;97423.28;;;13.10;100.00
65754;BME280;69207;47.502;18.940;2023-08-31T00:01:44;97424.00;;;13.10;100.00
65754;BME280;69207;47.502;18.940;2023-08-31T00:02:47;97433.16;;;13.15;100.00
65754;BME280;69207;47.502;18.940;2023-08-31T00:03:50;97429.00;;;13.14;100.00
65754;BME280;69207;47.502;18.940;2023-08-31T00:04:53;97425.53;;;13.13;100.00
65754;BME280;69207;47.502;18.940;2023-08-31T00:05:57;97432.28;;;13.10;100.00
65754;BME280;69207;47.502;18.940;2023-08-31T00:06:59;97435.84;;;13.13;100.00
65754;BME280;69207;47.502;18.940;2023-08-31T00:08:03;97435.84;;;13.13;100.00
65754;BME280;69207;47.502;18.940;2023-08-31T00:09:06;97431.53;;;13.10;100.00
65754;BME280;69207;47.502;18.940;2023-08-31T00:10:12;97430.13;;;13.09;100.00
65754;BME280;69207;47.502;18.940;2023-08-31T00:11:15;97432.87;;;13.09;100.00
65754;BME280;69207;47.502;18.940;2023-08-31T00:12:18;97426.66;;;13.08;100.00
65754;BME280;69207;47.502;18.940;2023-08-31T00:13:21;97436.88;;;13.06;100.00
65754;BME280;69207;47.502;18.940;2023-08-31T00:14:25;97434.22;;;13.08;100.00
65754;BME280;69207;47.502;18.940;2023-08-31T00:15:29;97428.06;;;13.09;100.00
65754;BME280;69207;47.502;18.940;2023-08-31T00:16:35;97431.53;;;13.10;100.00
65754;BME280;69207;47.502;18.940;2023-08-31T00:17:39;97434.31;;;13.10;100.00
65754;BME280;69207;47.502;18.940;2023-08-31T00:18:42;97430.13;;;13.09;100.00
65754;BME280;69207;47.502;18.940;2023-08-31T00:19:47;97430.84;;;13.09;100.00
65754;BME280;69207;47.502;18.940;2023-08-31T00:20:50;97435.13;;;13.12;100.00
65754;BME280;69207;47.502;18.940;2023-08-31T00:21:54;97433.88;;;13.15;100.00
65754;BME280;69207;47.502;18.940;2023-08-31T00:22:56;97437.38;;;13.16;100.00
65754;BME280;69207;47.502;18.940;2023-08-31T00:24:00;97440.84;;;13.16;100.00
65754;BME280;69207;47.502;18.940;2023-08-31T00:25:05;97437.56;;;13.20;100.00
65754;BME280;69207;47.502;18.940;2023-08-31T00:26:11;97430.72;;;13.21;100.00
65754;BME280;69207;47.502;18.940;2023-08-31T00:27:13;97435.66;;;13.23;100.00
65754;BME280;69207;47.502;18.940;2023-08-31T00:28:17;97435.03;;;13.24;100.00
65754;BME280;69207;47.502;18.940;2023-08-31T00:29:21;97436.44;;;13.25;100.00
65754;BME280;69207;47.502;18.940;2023-08-31T00:30:26;97433.16;;;13.29;100.00
65754;BME280;69207;47.502;18.940;2023-08-31T00:31:32;97433.97;;;13.31;100.00
65754;BME280;69207;47.502;18.940;2023-08-31T00:32:36;97435.50;;;13.34;100.00
65754;BME280;69207;47.502;18.940;2023-08-31T00:33:42;97436.94;;;13.35;100.00
65754;BME280;69207;47.502;18.940;2023-08-31T00:34:45;97434.38;;;13.39;100.00
65754;BME280;69207;47.502;18.940;2023-08-31T00:35:48;97430.97;;;13.41;100.00
65754;BME280;69207;47.502;18.940;2023-08-31T00:36:51;97430.63;;;13.48;100.00
65754;BME280;69207;47.502;18.940;2023-08-31T00:37:55;97428.00;;;13.51;100.00
65754;BME280;69207;47.502;18.940;2023-08-31T00:39:05;97431.34;;;13.49;100.00
65754;BME280;69207;47.502;18.940;2023-08-31T00:40:09;97436.97;;;13.51;100.00
65754;BME280;69207;47.502;18.940;2023-08-31T00:41:16;97433.06;;;13.56;100.00
65754;BME280;69207;47.502;18.940;2023-08-31T00:42:20;97428.34;;;13.59;100.00
65754;BME280;69207;47.502;18.940;2023-08-31T00:43:24;97435.19;;;13.58;100.00
65754;BME280;69207;47.502;18.940;2023-08-31T00:44:27;97429.78;;;13.60;100.00
65754;BME280;69207;47.502;18.940;2023-08-31T00:45:29;97433.97;;;13.61;100.00
65754;BME280;69207;47.502;18.940;2023-08-31T00:46:34;97437.63;;;13.65;100.00
65754;BME280;69207;47.502;18.940;2023-08-31T00:47:37;97425.97;;;13.67;100.00
65754;BME280;69207;47.502;18.940;2023-08-31T00:48:41;97434.97;;;13.67;100.00
65754;BME280;69207;47.502;18.940;2023-08-31T00:49:44;97429.53;;;13.69;100.00
65754;BME280;69207;47.502;18.940;2023-08-31T00:50:48;97435.88;;;13.72;100.00
65754;BME280;69207;47.502;18.940;2023-08-31T00:51:51;97434.63;;;13.75;100.00
65754;BME280;69207;47.502;18.940;2023-08-31T00:52:53;97426.09;;;13.85;100.00
65754;BME280;69207;47.502;18.940;2023-08-31T00:53:56;97435.00;;;13.83;100.00
65754;BME280;69207;47.502;18.940;2023-08-31T00:55:02;97428.03;;;13.82;100.00
65754;BME280;69207;47.502;18.940;2023-08-31T00:56:09;97428.12;;;13.84;100.00
65754;BME280;69207;47.502;18.940;2023-08-31T00:57:11;97431.59;;;13.85;100.00
65754;BME280;69207;47.502;18.940;2023-08-31T00:58:15;97420.91;;;13.93;100.00
65754;BME280;69207;47.502;18.940;2023-08-31T00:59:17;97430.00;;;13.95;100.00
65754;BME280;69207;47.502;18.940;2023-08-31T01:00:23;97428.16;;;14.00;100.00
65754;BME280;69207;47.502;18.940;2023-08-31T01:01:48;97429.03;;;14.05;100.00
65754;BME280;69207;47.502;18.940;2023-08-31T01:03:05;97436.97;;;13.96;100.00
65754;BME280;69207;47.502;18.940;2023-08-31T01:06:13;97444.53;;;13.96;100.00
65754;BME280;69207;47.502;18.940;2023-08-31T01:07:21;97443.81;;;13.95;100.00
65754;BME280;69207;47.502;18.940;2023-08-31T01:12:20;97431.63;;;14.00;100.00
65754;BME280;69207;47.502;18.940;2023-08-31T01:13:33;97440.69;;;14.03;100.00
65754;BME280;69207;47.502;18.940;2023-08-31T01:14:49;97437.94;;;14.03;100.00
65754;BME280;69207;47.502;18.940;2023-08-31T01:15:55;97438.66;;;14.04;100.00
65754;BME280;69207;47.502;18.940;2023-08-31T01:16:59;97438.75;;;14.06;100.00
65754;BME280;69207;47.502;18.940;2023-08-31T01:18:03;97435.16;;;14.03;100.00
65754;BME280;69207;47.502;18.940;2023-08-31T01:19:17;97438.56;;;14.02;100.00
65754;BME280;69207;47.502;18.940;2023-08-31T01:20:38;97450.94;;;14.00;100.00
65754;BME280;69207;47.502;18.940;2023-08-31T01:21:46;97442.13;;;14.04;100.00
65754;BME280;69207;47.502;18.940;2023-08-31T01:23:11;97452.47;;;14.04;100.00
65754;BME280;69207;47.502;18.940;2023-08-31T01:24:16;97437.16;;;14.00;100.00
65754;BME280;69207;47.502;18.940;2023-08-31T01:25:20;97453.72;;;14.00;100.00
65754;BME280;69207;47.502;18.940;2023-08-31T01:26:23;97448.09;;;13.98;100.00
65754;BME280;69207;47.502;18.940;2023-08-31T01:27:27;97444.00;;;13.99;100.00
65754;BME280;69207;47.502;18.940;2023-08-31T01:28:30;97450.13;;;13.98;100.00
65754;BME280;69207;47.502;18.940;2023-08-31T01:29:34;97449.41;;;13.97;100.00
65754;BME280;69207;47.502;18.940;2023-08-31T01:30:37;97451.47;;;13.97;100.00
65754;BME280;69207;47.502;18.940;2023-08-31T01:31:43;97456.28;;;13.96;100.00
65754;BME280;69207;47.502;18.940;2023-08-31T01:32:48;97461.81;;;13.96;100.00
65754;BME280;69207;47.502;18.940;2023-08-31T01:33:51;97464.50;;;13.94;100.00
65754;BME280;69207;47.502;18.940;2023-08-31T01:34:54;97465.91;;;13.95;100.00
65754;BME280;69207;47.502;18.940;2023-08-31T01:35:59;97462.59;;;13.99;100.00
65754;BME280;69207;47.502;18.940;2023-08-31T01:37:10;97463.94;;;13.98;100.00
65754;BME280;69207;47.502;18.940;2023-08-31T01:38:16;97466.00;;;13.97;100.00
65754;BME280;69207;47.502;18.940;2023-08-31T01:39:44;97462.53;;;13.97;100.00
65754;BME280;69207;47.502;18.940;2023-08-31T01:41:01;97467.41;;;13.98;100.00
65754;BME280;69207;47.502;18.940;2023-08-31T01:42:06;97463.41;;;14.02;100.00
65754;BME280;69207;47.502;18.940;2023-08-31T01:43:11;97461.44;;;14.04;100.00
65754;BME280;69207;47.502;18.940;2023-08-31T01:44:16;97464.91;;;14.05;100.00
65754;BME280;69207;47.502;18.940;2023-08-31T01:45:22;97464.91;;;14.05;100.00
65754;BME280;69207;47.502;18.940;2023-08-31T01:46:25;97455.31;;;14.06;100.00
65754;BME280;69207;47.502;18.940;2023-08-31T01:47:29;97459.41;;;14.05;100.00
65754;BME280;69207;47.502;18.940;2023-08-31T01:48:38;97458.69;;;14.04;100.00
65754;BME280;69207;47.502;18.940;2023-08-31T01:49:41;97456.56;;;14.03;100.00
65754;BME280;69207;47.502;18.940;2023-08-31T01:50:46;97467.78;;;14.07;100.00
65754;BME280;69207;47.502;18.940;2023-08-31T01:51:49;97461.38;;;14.02;100.00
65754;BME280;69207;47.502;18.940;2023-08-31T01:52:52;97461.38;;;14.02;100.00
65754;BME280;69207;47.502;18.940;2023-08-31T01:53:58;97456.56;;;14.03;100.00
65754;BME280;69207;47.502;18.940;2023-08-31T01:55:01;97461.44;;;14.04;100.00
65754;BME280;69207;47.502;18.940;2023-08-31T01:56:05;97468.22;;;14.01;100.00
65754;BME280;69207;47.502;18.940;2023-08-31T01:57:08;97457.06;;;13.99;100.00
65754;BME280;69207;47.502;18.940;2023-08-31T01:58:11;97463.22;;;13.97;100.00
65754;BME280;69207;47.502;18.940;2023-08-31T01:59:14;97463.34;;;13.99;100.00
65754;BME280;69207;47.502;18.940;2023-08-31T02:00:18;97459.25;;;14.00;100.00
65754;BME280;69207;47.502;18.940;2023-08-31T02:01:21;97466.69;;;13.98;100.00
65754;BME280;69207;47.502;18.940;2023-08-31T02:02:24;97461.88;;;13.98;100.00
65754;BME280;69207;47.502;18.940;2023-08-31T02:03:27;97460.47;;;13.97;100.00
65754;BME280;69207;47.502;18.940;2023-08-31T02:04:30;97459.03;;;13.96;100.00
65754;BME280;69207;47.502;18.940;2023-08-31T02:05:33;97454.94;;;13.97;100.00
65754;BME280;69207;47.502;18.940;2023-08-31T02:06:36;97463.22;;;13.97;100.00
65754;BME280;69207;47.502;18.940;2023-08-31T02:07:39;97457.72;;;13.97;100.00
65754;BME280;69207;47.502;18.940;2023-08-31T02:08:42;97458.41;;;13.98;100.00
65754;BME280;69207;47.502;18.940;2023-08-31T02:09:49;97455.84;;;14.02;100.00
65754;BME280;69207;47.502;18.940;2023-08-31T02:10:52;97454.31;;;13.99;100.00
65754;BME280;69207;47.502;18.940;2023-08-31T02:11:57;97462.59;;;13.99;100.00
65754;BME280;69207;47.502;18.940;2023-08-31T02:13:00;97457.81;;;13.99;100.00
65754;BME280;69207;47.502;18.940;2023-08-31T02:14:03;97466.69;;;13.98;100.00
65754;BME280;69207;47.502;18.940;2023-08-31T02:15:07;97459.12;;;13.98;100.00
65754;BME280;69207;47.502;18.940;2023-08-31T02:16:10;97460.66;;;14.02;100.00
65754;BME280;69207;47.502;18.940;2023-08-31T02:17:13;97462.59;;;13.99;100.00
65754;BME280;69207;47.502;18.940;2023-08-31T02:18:16;97458.41;;;13.98;100.00
65754;BME280;69207;47.502;18.940;2023-08-31T02:19:19;97458.97;;;13.94;100.00
65754;BME280;69207;47.502;18.940;2023-08-31T02:20:22;97458.84;;;13.92;100.00
65754;BME280;69207;47.502;18.940;2023-08-31T02:21:25;97457.53;;;13.93;100.00
65754;BME280;69207;47.502;18.940;2023-08-31T02:22:30;97461.19;;;13.98;100.00
65754;BME280;69207;47.502;18.940;2023-08-31T02:23:34;97465.91;;;13.95;100.00
65754;BME280;69207;47.502;18.940;2023-08-31T02:24:37;97455.56;;;13.96;100.00
65754;BME280;69207;47.502;18.940;2023-08-31T02:25:40;97453.34;;;13.92;100.00
65754;BME280;69207;47.502;18.940;2023-08-31T02:26:42;97466.53;;;13.94;100.00
65754;BME280;69207;47.502;18.940;2023-08-31T02:27:45;97462.25;;;13.91;100.00
65754;BME280;69207;47.502;18.940;2023-08-31T02:28:48;97465.53;;;13.87;100.00
65754;BME280;69207;47.502;18.940;2023-08-31T02:29:51;97462.97;;;13.91;100.00
65754;BME280;69207;47.502;18.940;2023-08-31T02:31:02;97459.41;;;13.89;100.00
65754;BME280;69207;47.502;18.940;2023-08-31T02:32:06;97462.06;;;13.87;100.00
65754;BME280;69207;47.502;18.940;2023-08-31T02:33:09;97469.53;;;13.84;100.00
65754;BME280;69207;47.502;18.940;2023-08-31T02:34:13;97469.81;;;13.90;100.00
65754;BME280;69207;47.502;18.940;2023-08-31T02:35:16;97467.06;;;13.90;100.00
65754;BME280;69207;47.502;18.940;2023-08-31T02:36:19;97472.31;;;13.84;100.00
65754;BME280;69207;47.502;18.940;2023-08-31T02:37:25;97470.78;;;13.81;100.00
65754;BME280;69207;47.502;18.940;2023-08-31T02:38:28;97470.44;;;13.89;100.00
65754;BME280;69207;47.502;18.940;2023-08-31T02:39:31;97473.53;;;13.81;100.00
65754;BME280;69207;47.502;18.940;2023-08-31T02:40:34;97474.88;;;13.80;100.00
65754;BME280;69207;47.502;18.940;2023-08-31T02:41:37;97469.87;;;13.77;100.00
65754;BME280;69207;47.502;18.940;2023-08-31T02:42:40;97476.84;;;13.78;100.00
65754;BME280;69207;47.502;18.940;2023-08-31T02:43:42;97470.50;;;13.75;100.00
65754;BME280;69207;47.502;18.940;2023-08-31T02:44:45;97471.84;;;13.74;100.00
65754;BME280;69207;47.502;18.940;2023-08-31T02:45:49;97476.66;;;13.73;100.00
65754;BME280;69207;47.502;18.940;2023-08-31T02:46:52;97473.19;;;13.73;100.00
65754;BME280;69207;47.502;18.940;2023-08-31T02:47:55;97476.13;;;13.77;100.00
65754;BME280;69207;47.502;18.940;2023-08-31T02:48:59;97482.78;;;13.72;100.00
65754;BME280;69207;47.502;18.940;2023-08-31T02:50:02;97471.63;;;13.70;100.00
65754;BME280;69207;47.502;18.940;2023-08-31T02:51:05;97476.44;;;13.69;100.00
65754;BME280;69207;47.502;18.940;2023-08-31T02:52:07;97477.16;;;13.70;100.00
65754;BME280;69207;47.502;18.940;2023-08-31T02:53:10;97473.59;;;13.67;100.00
65754;BME280;69207;47.502;18.940;2023-08-31T02:54:14;97471.47;;;13.66;100.00
65754;BME280;69207;47.502;18.940;2023-08-31T02:55:17;97472.19;;;13.66;100.00
65754;BME280;69207;47.502;18.940;2023-08-31T02:56:20;97470.94;;;13.69;100.00
65754;BME280;69207;47.502;18.940;2023-08-31T02:57:22;97468.16;;;13.69;100.00
65754;BME280;69207;47.502;18.940;2023-08-31T02:58:25;97468.28;;;13.71;100.00
65754;BME280;69207;47.502;18.940;2023-08-31T02:59:28;97473.69;;;13.69;100.00
65754;BME280;69207;47.502;18.940;2023-08-31T03:00:31;97463.28;;;13.68;100.00
65754;BME280;69207;47.502;18.940;2023-08-31T03:01:36;97468.16;;;13.69;100.00
65754;BME280;69207;47.502;18.940;2023-08-31T03:02:39;97460.53;;;13.68;100.00
65754;BME280;69207;47.502;18.940;2023-08-31T03:03:42;97467.38;;;13.67;100.00
65754;BME280;69207;47.502;18.940;2023-08-31T03:04:48;97464.25;;;13.74;100.00
65754;BME280;69207;47.502;18.940;2023-08-31T03:05:55;97463.03;;;13.78;100.00
65754;BME280;69207;47.502;18.940;2023-08-31T03:06:58;97466.12;;;13.70;100.00
65754;BME280;69207;47.502;18.940;2023-08-31T03:08:01;97468.09;;;13.67;100.00
65754;BME280;69207;47.502;18.940;2023-08-31T03:09:04;97460.72;;;13.72;100.00
65754;BME280;69207;47.502;18.940;2023-08-31T03:10:08;97465.16;;;13.79;100.00
65754;BME280;69207;47.502;18.940;2023-08-31T03:11:11;97466.22;;;13.72;100.00
65754;BME280;69207;47.502;18.940;2023-08-31T03:12:17;97470.94;;;13.69;100.00
65754;BME280;69207;47.502;18.940;2023-08-31T03:13:20;97465.31;;;13.67;100.00
65754;BME280;69207;47.502;18.940;2023-08-31T03:14:23;97459.19;;;13.69;100.00
65754;BME280;69207;47.502;18.940;2023-08-31T03:15:26;97469.50;;;13.68;100.00
65754;BME280;69207;47.502;18.940;2023-08-31T03:16:29;97462.75;;;13.71;100.00
65754;BME280;69207;47.502;18.940;2023-08-31T03:17:32;97468.09;;;13.67;100.00
65754;BME280;69207;47.502;18.940;2023-08-31T03:18:35;97464.41;;;13.63;100.00
65754;BME280;69207;47.502;18.940;2023-08-31T03:19:38;97453.38;;;13.63;100.00
65754;BME280;69207;47.502;18.940;2023-08-31T03:20:40;97461.47;;;13.59;100.00
65754;BME280;69207;47.502;18.940;2023-08-31T03:21:43;97464.84;;;13.57;100.00
65754;BME280;69207;47.502;18.940;2023-08-31T03:22:46;97462.19;;;13.59;100.00
65754;BME280;69207;47.502;18.940;2023-08-31T03:23:49;97465.56;;;13.58;100.00
65754;BME280;69207;47.502;18.940;2023-08-31T03:24:52;97467.59;;;13.57;100.00
65754;BME280;69207;47.502;18.940;2023-08-31T03:25:55;97469.47;;;13.53;100.00
65754;BME280;69207;47.502;18.940;2023-08-31T03:26:58;97471.50;;;13.52;100.00
65754;BME280;69207;47.502;18.940;2023-08-31T03:28:01;97473.34;;;13.47;100.00
65754;BME280;69207;47.502;18.940;2023-08-31T03:29:04;97471.94;;;13.46;100.00
65754;BME280;69207;47.502;18.940;2023-08-31T03:30:07;97470.94;;;13.40;100.00
65754;BME280;69207;47.502;18.940;2023-08-31T03:31:10;97478.50;;;13.39;100.00
65754;BME280;69207;47.502;18.940;2023-08-31T03:32:13;97475.03;;;13.39;100.00
65754;BME280;69207;47.502;18.940;2023-08-31T03:33:16;97472.06;;;13.35;100.00
65754;BME280;69207;47.502;18.940;2023-08-31T03:34:19;97476.78;;;13.32;100.00
65754;BME280;69207;47.502;18.940;2023-08-31T03:35:22;97480.97;;;13.33;100.00
65754;BME280;69207;47.502;18.940;2023-08-31T03:36:29;97483.75;;;13.33;100.00
65754;BME280;69207;47.502;18.940;2023-08-31T03:37:32;97483.03;;;13.33;100.00
65754;BME280;69207;47.502;18.940;2023-08-31T03:38:36;97484.97;;;13.30;100.00
65754;BME280;69207;47.502;18.940;2023-08-31T03:39:40;97489.25;;;13.33;100.00
65754;BME280;69207;47.502;18.940;2023-08-31T03:40:55;97490.06;;;13.36;100.00
65754;BME280;69207;47.502;18.940;2023-08-31T03:41:58;97487.22;;;13.34;100.00
65754;BME280;69207;47.502;18.940;2023-08-31T03:43:01;97490.69;;;13.34;100.00
65754;BME280;69207;47.502;18.940;2023-08-31T03:44:04;97489.81;;;13.45;100.00
65754;BME280;69207;47.502;18.940;2023-08-31T03:45:07;97492.59;;;13.45;100.00
65754;BME280;69207;47.502;18.940;2023-08-31T03:46:10;97491.88;;;13.45;100.00
65754;BME280;69207;47.502;18.940;2023-08-31T03:47:13;97493.09;;;13.42;100.00
65754;BME280;69207;47.502;18.940;2023-08-31T03:48:16;97491.25;;;13.46;100.00
65754;BME280;69207;47.502;18.940;2023-08-31T03:49:19;97502.38;;;13.48;100.00
65754;BME280;69207;47.502;18.940;2023-08-31T03:50:22;97491.97;;;13.47;100.00
65754;BME280;69207;47.502;18.940;2023-08-31T03:51:25;97502.56;;;13.53;100.00
65754;BME280;69207;47.502;18.940;2023-08-31T03:52:28;97495.44;;;13.47;100.00
65754;BME280;69207;47.502;18.940;2023-08-31T03:53:31;97491.88;;;13.45;100.00
65754;BME280;69207;47.502;18.940;2023-08-31T03:54:34;97496.97;;;13.51;100.00
65754;BME280;69207;47.502;18.940;2023-08-31T03:55:37;97494.09;;;13.48;100.00
65754;BME280;69207;47.502;18.940;2023-08-31T03:56:40;97492.69;;;13.47;100.00
65754;BME280;69207;47.502;18.940;2023-08-31T03:57:43;97498.00;;;13.43;100.00
65754;BME280;69207;47.502;18.940;2023-08-31T03:58:46;97493.09;;;13.42;100.00
65754;BME280;69207;47.502;18.940;2023-08-31T03:59:49;97500.94;;;13.47;100.00
65754;BME280;69207;47.502;18.940;2023-08-31T04:00:52;97495.97;;;13.44;100.00
65754;BME280;69207;47.502;18.940;2023-08-31T04:01:55;97499.53;;;13.46;100.00
65754;BME280;69207;47.502;18.940;2023-08-31T04:02:58;97495.34;;;13.45;100.00
65754;BME280;69207;47.502;18.940;2023-08-31T04:04:04;97506.19;;;13.41;100.00
65754;BME280;69207;47.502;18.940;2023-08-31T04:05:07;97510.78;;;13.51;100.00
65754;BME280;69207;47.502;18.940;2023-08-31T04:06:11;97508.44;;;13.45;100.00
65754;BME280;69207;47.502;18.940;2023-08-31T04:07:15;97499.94;;;13.41;100.00
65754;BME280;69207;47.502;18.940;2023-08-31T04:08:18;97504.66;;;13.38;100.00
65754;BME280;69207;47.502;18.940;2023-08-31T04:09:21;97504.56;;;13.36;100.00
65754;BME280;69207;47.502;18.940;2023-08-31T04:10:24;97508.03;;;13.37;100.00
65754;BME280;69207;47.502;18.940;2023-08-31T04:11:28;97511.06;;;13.43;100.00
65754;BME280;69207;47.502;18.940;2023-08-31T04:12:31;97505.34;;;13.53;100.00
65754;BME280;69207;47.502;18.940;2023-08-31T04:13:34;97509.94;;;13.48;100.00
65754;BME280;69207;47.502;18.940;2023-08-31T04:14:37;97514.66;;;13.45;100.00
65754;BME280;69207;47.502;18.940;2023-08-31T04:15:40;97507.59;;;13.42;100.00
65754;BME280;69207;47.502;18.940;2023-08-31T04:16:43;97505.56;;;13.43;100.00
65754;BME280;69207;47.502;18.940;2023-08-31T04:17:46;97502.78;;;13.43;100.00
65754;BME280;69207;47.502;18.940;2023-08-31T04:18:49;97504.97;;;13.44;100.00
65754;BME280;69207;47.502;18.940;2023-08-31T04:19:54;97501.16;;;13.52;100.00
65754;BME280;69207;47.502;18.940;2023-08-31T04:20:57;97503.81;;;13.50;100.00
65754;BME280;69207;47.502;18.940;2023-08-31T04:22:01;97506.66;;;13.52;100.00
65754;BME280;69207;47.502;18.940;2023-08-31T04:23:07;97508.00;;;13.51;100.00
65754;BME280;69207;47.502;18.940;2023-08-31T04:24:10;97513.00;;;13.54;100.00
65754;BME280;69207;47.502;18.940;2023-08-31T04:25:13;97509.72;;;13.58;100.00
65754;BME280;69207;47.502;18.940;2023-08-31T04:26:16;97513.81;;;13.57;100.00
65754;BME280;69207;47.502;18.940;2023-08-31T04:27:20;97512.38;;;13.56;100.00
65754;BME280;69207;47.502;18.940;2023-08-31T04:28:23;97514.53;;;13.57;100.00
65754;BME280;69207;47.502;18.940;2023-08-31T04:29:26;97516.66;;;13.59;100.00
65754;BME280;69207;47.502;18.940;2023-08-31T04:30:29;97523.59;;;13.60;100.00
65754;BME280;69207;47.502;18.940;2023-08-31T04:31:34;97523.59;;;13.60;100.00
65754;BME280;69207;47.502;18.940;2023-08-31T04:32:37;97531.37;;;13.63;100.00
65754;BME280;69207;47.502;18.940;2023-08-31T04:33:40;97531.78;;;13.71;100.00
65754;BME280;69207;47.502;18.940;2023-08-31T04:34:43;97529.59;;;13.70;100.00
65754;BME280;69207;47.502;18.940;2023-08-31T04:35:46;97534.69;;;13.76;100.00
65754;BME280;69207;47.502;18.940;2023-08-31T04:36:49;97527.03;;;13.74;100.00
65754;BME280;69207;47.502;18.940;2023-08-31T04:37:52;97541.56;;;13.74;100.00
65754;BME280;69207;47.502;18.940;2023-08-31T04:38:55;97533.56;;;13.81;100.00
65754;BME280;69207;47.502;18.940;2023-08-31T04:39:58;97542.94;;;13.89;100.00
65754;BME280;69207;47.502;18.940;2023-08-31T04:41:01;97543.38;;;13.84;100.00
65754;BME280;69207;47.502;18.940;2023-08-31T04:42:04;97545.31;;;13.81;100.00
65754;BME280;69207;47.502;18.940;2023-08-31T04:43:08;97552.38;;;13.84;100.00
65754;BME280;69207;47.502;18.940;2023-08-31T04:44:11;97553.66;;;13.97;100.00
65754;BME280;69207;47.502;18.940;2023-08-31T04:45:14;97556.41;;;13.97;100.00
65754;BME280;69207;47.502;18.940;2023-08-31T04:46:17;97560.88;;;14.04;100.00
65754;BME280;69207;47.502;18.940;2023-08-31T04:47:20;97554.56;;;14.02;100.00
65754;BME280;69207;47.502;18.940;2023-08-31T04:48:23;97556.88;;;14.07;100.00
65754;BME280;69207;47.502;18.940;2023-08-31T04:49:25;97559.56;;;14.05;100.00
65754;BME280;69207;47.502;18.940;2023-08-31T04:50:29;97556.06;;;14.05;100.00
65754;BME280;69207;47.502;18.940;2023-08-31T04:51:34;97556.81;;;14.05;100.00
65754;BME280;69207;47.502;18.940;2023-08-31T04:52:37;97559.72;;;14.09;100.00
65754;BME280;69207;47.502;18.940;2023-08-31T04:53:40;97561.69;;;14.07;100.00
65754;BME280;69207;47.502;18.940;2023-08-31T04:54:43;97552.16;;;14.10;100.00
65754;BME280;69207;47.502;18.940;2023-08-31T04:55:46;97557.88;;;14.14;100.00
65754;BME280;69207;47.502;18.940;2023-08-31T04:56:49;97561.47;;;14.16;100.00
65754;BME280;69207;47.502;18.940;2023-08-31T04:57:52;97557.88;;;14.14;100.00
65754;BME280;69207;47.502;18.940;2023-08-31T04:58:55;97562.59;;;14.11;100.00
65754;BME280;69207;47.502;18.940;2023-08-31T04:59:58;97560.56;;;14.12;100.00
65754;BME280;69207;47.502;18.940;2023-08-31T05:01:01;97558.50;;;14.12;100.00
65754;BME280;69207;47.502;18.940;2023-08-31T05:02:04;97562.06;;;14.15;100.00
65754;BME280;69207;47.502;18.940;2023-08-31T05:03:07;97556.66;;;14.17;100.00
65754;BME280;69207;47.502;18.940;2023-08-31T05:04:10;97556.53;;;14.15;100.00
65754;BME280;69207;47.502;18.940;2023-08-31T05:05:13;97562.78;;;14.15;100.00
65754;BME280;69207;47.502;18.940;2023-08-31T05:06:16;97559.50;;;14.19;100.00
65754;BME280;69207;47.502;18.940;2023-08-31T05:07:19;97557.44;;;14.19;100.00
65754;BME280;69207;47.502;18.940;2023-08-31T05:08:22;97568.69;;;14.23;100.00
65754;BME280;69207;47.502;18.940;2023-08-31T05:09:25;97574.22;;;14.23;100.00
65754;BME280;69207;47.502;18.940;2023-08-31T05:10:29;97574.12;;;14.21;100.00
65754;BME280;69207;47.502;18.940;2023-08-31T05:11:32;97569.91;;;14.20;100.00
65754;BME280;69207;47.502;18.940;2023-08-31T05:12:35;97576.16;;;14.21;100.00
65754;BME280;69207;47.502;18.940;2023-08-31T05:13:38;97577.59;;;14.22;100.00
65754;BME280;69207;47.502;18.940;2023-08-31T05:14:44;97583.41;;;14.28;100.00
65754;BME280;69207;47.502;18.940;2023-08-31T05:15:47;97586.44;;;14.34;100.00
65754;BME280;69207;47.502;18.940;2023-08-31T05:16:50;97591.84;;;14.32;100.00
65754;BME280;69207;47.502;18.940;2023-08-31T05:17:53;97589.81;;;14.33;100.00
65754;BME280;69207;47.502;18.940;2023-08-31T05:18:57;97587.66;;;14.31;100.00
65754;BME280;69207;47.502;18.940;2023-08-31T05:20:00;97596.78;;;14.34;100.00
65754;BME280;69207;47.502;18.940;2023-08-31T05:21:04;97596.94;;;14.38;100.00
65754;BME280;69207;47.502;18.940;2023-08-31T05:22:07;97598.28;;;14.37;100.00
65754;BME280;69207;47.502;18.940;2023-08-31T05:23:10;97594.09;;;14.36;100.00
65754;BME280;69207;47.502;18.940;2023-08-31T05:24:13;97594.72;;;14.34;100.00
65754;BME280;69207;47.502;18.940;2023-08-31T05:25:17;97592.72;;;14.50;100.00
65754;BME280;69207;47.502;18.940;2023-08-31T05:26:20;97596.62;;;14.45;100.00
65754;BME280;69207;47.502;18.940;2023-08-31T05:27:22;97595.09;;;14.42;100.00
65754;BME280;69207;47.502;18.940;2023-08-31T05:28:25;97604.81;;;14.43;100.00
65754;BME280;69207;47.502;18.940;2023-08-31T05:29:29;97598.03;;;14.46;100.00
65754;BME280;69207;47.502;18.940;2023-08-31T05:30:32;97600.31;;;14.50;100.00
65754;BME280;69207;47.502;18.940;2023-08-31T05:31:37;97606.44;;;14.48;100.00
65754;BME280;69207;47.502;18.940;2023-08-31T05:32:40;97601.09;;;14.52;100.00
65754;BME280;69207;47.502;18.940;2023-08-31T05:33:43;97604.38;;;14.49;100.00
65754;BME280;69207;47.502;18.940;2023-08-31T05:34:46;97607.87;;;14.49;100.00
65754;BME280;69207;47.502;18.940;2023-08-31T05:35:49;97605.13;;;14.49;100.00
65754;BME280;69207;47.502;18.940;2023-08-31T05:36:52;97606.72;;;14.55;100.00